createdAt,value
2019-03-29T00:01:58.379Z,9.10
2019-03-29T00:04:28.276Z,9.18
2019-03-29T00:06:58.206Z,9.17
2019-03-29T00:09:28.554Z,9.10
2019-03-29T00:11:58.653Z,9.17
2019-03-29T00:14:28.552Z,9.16
2019-03-29T00:16:58.480Z,9.22
2019-03-29T00:19:28.535Z,9.16
2019-03-29T00:21:58.445Z,9.24
2019-03-29T00:24:28.357Z,9.34
2019-03-29T00:26:58.249Z,9.43
2019-03-29T00:38:04.266Z,9.32
2019-03-29T00:41:13.183Z,9.28
2019-03-29T00:52:53.211Z,9.10
2019-03-29T00:55:23.401Z,9.12
2019-03-29T00:57:53.461Z,9.19
2019-03-29T01:00:23.357Z,9.13
2019-03-29T01:03:12.082Z,9.18
2019-03-29T01:22:37.711Z,8.89
2019-03-29T01:28:33.581Z,8.83
2019-03-29T01:33:42.812Z,8.82
2019-03-29T01:42:29.337Z,8.70
2019-03-29T01:50:32.973Z,8.76
2019-03-29T01:56:17.649Z,8.71
2019-03-29T01:58:47.575Z,8.62
2019-03-29T02:01:17.581Z,8.75
2019-03-29T02:03:47.521Z,8.83
2019-03-29T02:12:19.658Z,8.66
2019-03-29T02:15:08.272Z,8.65
2019-03-29T02:18:17.259Z,8.63
2019-03-29T02:24:13.274Z,8.65
2019-03-29T02:35:33.873Z,8.48
2019-03-29T02:41:09.512Z,8.46
2019-03-29T02:46:45.491Z,8.56
2019-03-29T02:49:15.418Z,8.63
2019-03-29T03:03:32.228Z,8.45
2019-03-29T03:20:54.648Z,8.46
2019-03-29T03:23:25.615Z,8.46
2019-03-29T03:29:05.034Z,8.40
2019-03-29T03:34:44.292Z,7.87
2019-03-29T03:43:29.894Z,8.35
2019-03-29T03:51:56.621Z,8.41
2019-03-29T03:54:26.617Z,8.59
2019-03-29T03:57:35.588Z,8.48
2019-03-29T04:03:26.904Z,8.59
2019-03-29T04:12:01.804Z,8.58
2019-03-29T04:14:31.835Z,8.58
2019-03-29T04:22:39.731Z,8.86
2019-03-29T04:25:09.759Z,8.88
2019-03-29T04:27:39.773Z,8.87
2019-03-29T04:30:48.911Z,8.90
2019-03-29T04:33:18.935Z,9.02
2019-03-29T04:35:48.868Z,8.97
2019-03-29T05:00:57.205Z,9.13
2019-03-29T05:03:27.263Z,8.58
2019-03-29T05:05:57.366Z,9.18
2019-03-29T05:11:23.002Z,9.11
2019-03-29T05:17:17.904Z,9.05
2019-03-29T05:22:49.907Z,9.02
2019-03-29T05:25:19.823Z,8.95
2019-03-29T05:27:49.737Z,8.93
2019-03-29T05:30:19.758Z,8.99
2019-03-29T05:38:55.044Z,8.96
2019-03-29T05:44:28.503Z,9.16
2019-03-29T05:46:58.381Z,9.50
2019-03-29T05:53:03.044Z,11.04
2019-03-29T05:58:39.614Z,11.48
2019-03-29T06:04:24.228Z,11.88
2019-03-29T06:06:54.197Z,12.64
2019-03-29T06:09:24.193Z,12.59
2019-03-29T06:12:05.519Z,12.24
2019-03-29T06:14:35.554Z,12.47
2019-03-29T06:17:48.803Z,13.05
2019-03-29T06:23:31.119Z,13.11
2019-03-29T06:26:01.041Z,12.89
2019-03-29T06:29:10.069Z,14.59
2019-03-29T06:35:08.362Z,16.37
2019-03-29T06:38:17.330Z,18.02
2019-03-29T06:43:37.932Z,18.77
2019-03-29T06:49:32.468Z,16.66
2019-03-29T07:01:18.955Z,11.42
2019-03-29T07:15:25.882Z,11.13
2019-03-29T07:35:00.443Z,15.38
2019-03-29T07:37:30.360Z,15.62
2019-03-29T07:42:55.801Z,16.49
2019-03-29T07:45:27.624Z,14.52
2019-03-29T07:47:57.662Z,13.15
2019-03-29T07:50:46.435Z,12.08
2019-03-29T07:55:56.115Z,11.33
2019-03-29T07:59:05.019Z,11.09
2019-03-29T08:04:31.159Z,10.85
2019-03-29T08:10:49.360Z,10.59
2019-03-29T08:16:14.444Z,10.97
2019-03-29T08:27:54.883Z,13.51
2019-03-29T08:30:24.998Z,15.81
2019-03-29T08:33:33.975Z,17.08
2019-03-29T08:39:28.244Z,14.90
2019-03-29T08:44:51.015Z,14.36
2019-03-29T08:53:38.020Z,13.29
2019-03-29T08:56:19.224Z,17.12
2019-03-29T08:58:49.278Z,17.22
2019-03-29T09:07:22.753Z,19.05
2019-03-29T09:12:59.851Z,17.62
2019-03-29T09:21:36.820Z,14.37
2019-03-29T09:24:20.774Z,13.92
2019-03-29T09:26:38.644Z,13.88
2019-03-29T09:32:17.864Z,13.83
2019-03-29T09:38:07.882Z,19.14
2019-03-29T09:40:37.943Z,14.44
2019-03-29T09:43:28.235Z,17.13
2019-03-29T09:51:39.957Z,22.01
2019-03-29T09:54:09.817Z,20.56
2019-03-29T09:57:18.892Z,21.60
2019-03-29T10:02:58.010Z,20.29
2019-03-29T10:11:44.509Z,22.81
2019-03-29T10:14:14.518Z,22.25
2019-03-29T10:16:44.404Z,21.92
2019-03-29T10:19:14.458Z,22.18
2019-03-29T10:24:53.652Z,23.94
2019-03-29T10:33:14.129Z,21.94
2019-03-29T10:35:51.924Z,21.52
2019-03-29T10:38:34.649Z,20.54
2019-03-29T10:50:13.737Z,13.97
2019-03-29T10:55:49.860Z,13.41
2019-03-29T11:07:05.408Z,15.71
2019-03-29T11:09:37.192Z,17.61
2019-03-29T11:12:07.404Z,19.17
2019-03-29T11:15:16.369Z,19.83
2019-03-29T11:21:06.181Z,20.02
2019-03-29T11:23:36.235Z,19.25
2019-03-29T11:26:06.154Z,17.28
2019-03-29T11:31:31.786Z,15.80
2019-03-29T11:34:01.666Z,15.25
2019-03-29T11:36:31.822Z,14.14
2019-03-29T11:39:40.978Z,12.92
2019-03-29T11:42:10.880Z,11.87
2019-03-29T11:47:36.714Z,12.91
2019-03-29T11:56:22.161Z,15.59
2019-03-29T11:59:31.152Z,15.28
2019-03-29T12:02:41.010Z,16.32
2019-03-29T12:08:36.239Z,17.30
2019-03-29T12:14:17.761Z,16.94
2019-03-29T12:16:48.106Z,18.28
2019-03-29T12:22:13.351Z,17.72
2019-03-29T12:27:52.591Z,16.26
2019-03-29T12:30:31.502Z,14.63
2019-03-29T12:32:54.467Z,13.61
2019-03-29T12:36:03.462Z,13.08
2019-03-29T12:41:48.491Z,12.51
2019-03-29T12:44:18.391Z,12.62
2019-03-29T12:49:44.727Z,13.32
2019-03-29T12:55:23.901Z,12.86
2019-03-29T12:57:53.847Z,13.71
2019-03-29T13:00:24.000Z,13.52
2019-03-29T13:02:53.982Z,14.14
2019-03-29T13:05:23.890Z,15.06
2019-03-29T13:07:53.807Z,15.04
2019-03-29T13:11:02.758Z,15.54
2019-03-29T13:13:32.740Z,14.28
2019-03-29T13:16:02.757Z,15.09
2019-03-29T13:21:39.054Z,14.30
2019-03-29T13:24:09.078Z,14.68
2019-03-29T13:27:18.174Z,15.70
2019-03-29T13:33:08.160Z,15.00
2019-03-29T13:38:52.823Z,16.05
2019-03-29T13:41:22.807Z,15.42
2019-03-29T13:44:32.163Z,14.49
2019-03-29T13:47:41.272Z,13.75
2019-03-29T13:53:26.062Z,12.54
2019-03-29T13:59:05.417Z,11.27
2019-03-29T14:07:30.868Z,10.26
2019-03-29T14:10:01.150Z,10.01
2019-03-29T14:15:27.281Z,10.98
2019-03-29T14:17:57.193Z,12.07
2019-03-29T14:20:45.903Z,12.77
2019-03-29T14:23:15.975Z,12.93
2019-03-29T14:26:25.047Z,12.91
2019-03-29T14:29:13.772Z,12.72
2019-03-29T14:31:43.851Z,12.53
2019-03-29T14:34:13.902Z,13.24
2019-03-29T14:39:39.511Z,12.91
2019-03-29T14:42:12.504Z,13.45
2019-03-29T14:44:51.663Z,13.10
2019-03-29T14:53:10.615Z,12.90
2019-03-29T15:01:38.947Z,11.37
2019-03-29T15:04:08.983Z,11.40
2019-03-29T15:09:35.278Z,10.14
2019-03-29T15:12:06.901Z,10.83
2019-03-29T15:14:36.829Z,10.47
2019-03-29T15:17:06.777Z,10.66
2019-03-29T15:19:36.830Z,10.45
2019-03-29T15:22:06.755Z,10.03
2019-03-29T15:24:36.708Z,10.09
2019-03-29T15:27:06.948Z,10.18
2019-03-29T15:29:36.915Z,9.73
2019-03-29T15:32:06.841Z,9.15
2019-03-29T15:34:36.736Z,8.98
2019-03-29T15:37:09.829Z,8.38
2019-03-29T15:39:38.296Z,8.43
2019-03-29T15:42:08.194Z,8.07
2019-03-29T15:44:38.236Z,7.99
2019-03-29T15:47:08.412Z,7.73
2019-03-29T15:49:38.341Z,7.57
2019-03-29T15:52:08.222Z,7.52
2019-03-29T15:54:38.187Z,7.53
2019-03-29T15:57:08.106Z,7.57
2019-03-29T15:59:37.981Z,7.64
2019-03-29T16:02:07.959Z,7.79
2019-03-29T16:04:38.005Z,7.79
2019-03-29T16:07:07.888Z,7.39
2019-03-29T16:09:37.901Z,7.45
2019-03-29T16:12:07.816Z,7.27
2019-03-29T16:14:37.679Z,7.25
2019-03-29T16:17:07.581Z,7.01
2019-03-29T16:19:37.657Z,6.93
2019-03-29T16:22:07.583Z,6.83
2019-03-29T16:24:37.487Z,6.73
2019-03-29T16:27:07.522Z,6.61
2019-03-29T16:29:37.439Z,6.54
2019-03-29T16:32:07.323Z,6.52
2019-03-29T16:34:37.339Z,6.45
2019-03-29T16:40:16.688Z,6.33
2019-03-29T16:43:05.332Z,6.23
2019-03-29T16:45:47.103Z,6.19
2019-03-29T16:48:25.957Z,6.07
2019-03-29T16:50:56.007Z,6.04
2019-03-29T16:53:25.923Z,5.99
2019-03-29T16:55:55.821Z,5.95
2019-03-29T16:58:25.821Z,5.92
2019-03-29T17:01:14.524Z,5.83
2019-03-29T17:03:44.551Z,5.76
2019-03-29T17:06:14.686Z,5.71
2019-03-29T17:08:44.684Z,5.68
2019-03-29T17:11:14.664Z,5.63
2019-03-29T17:13:44.613Z,5.56
2019-03-29T17:16:14.692Z,5.49
2019-03-29T17:19:23.653Z,5.40
2019-03-29T17:21:53.662Z,5.33
2019-03-29T17:24:23.590Z,5.28
2019-03-29T17:26:53.663Z,5.19
2019-03-29T17:29:23.715Z,5.11
2019-03-29T17:32:12.440Z,5.08
2019-03-29T17:34:42.407Z,5.03
2019-03-29T17:37:12.398Z,4.96
2019-03-29T17:39:42.332Z,4.95
2019-03-29T17:42:12.383Z,4.91
2019-03-29T17:44:42.324Z,4.87
2019-03-29T17:47:12.209Z,4.83
2019-03-29T17:49:42.415Z,4.77
2019-03-29T17:52:12.904Z,4.73
2019-03-29T17:54:42.851Z,4.70
2019-03-29T17:57:12.870Z,4.65
2019-03-29T17:59:42.809Z,4.62
2019-03-29T18:02:12.716Z,4.59
2019-03-29T18:04:42.820Z,4.56
2019-03-29T18:10:33.246Z,4.48
2019-03-29T18:13:03.682Z,4.44
2019-03-29T18:21:25.032Z,4.41
2019-03-29T18:23:54.891Z,4.36
2019-03-29T18:26:24.946Z,4.35
2019-03-29T18:28:54.889Z,4.30
2019-03-29T18:31:24.788Z,4.25
2019-03-29T18:33:54.773Z,4.31
2019-03-29T18:36:24.656Z,4.28
2019-03-29T18:38:54.966Z,4.21
2019-03-29T18:41:24.858Z,4.16
2019-03-29T18:43:54.958Z,4.08
2019-03-29T18:46:25.009Z,4.03
2019-03-29T18:48:54.958Z,3.97
2019-03-29T18:51:24.941Z,4.02
2019-03-29T18:54:33.937Z,3.98
2019-03-29T18:57:04.320Z,3.93
2019-03-29T18:59:34.329Z,3.90
2019-03-29T19:04:59.553Z,3.85
2019-03-29T19:10:50.732Z,3.78
2019-03-29T19:13:31.118Z,3.75
2019-03-29T19:16:01.177Z,3.75
2019-03-29T19:18:31.105Z,3.72
2019-03-29T19:23:56.539Z,3.76
2019-03-29T19:29:46.424Z,3.72
2019-03-29T19:32:16.460Z,3.73
2019-03-29T19:40:37.604Z,3.66
2019-03-29T19:43:46.657Z,3.55
2019-03-29T19:49:12.272Z,3.41
2019-03-29T19:51:42.335Z,3.35
2019-03-29T19:54:12.243Z,3.26
2019-03-29T19:56:55.488Z,3.17
2019-03-29T20:02:27.193Z,2.92
2019-03-29T20:08:17.326Z,3.07
2019-03-29T20:10:47.386Z,3.05
2019-03-29T20:13:17.399Z,3.03
2019-03-29T20:15:47.413Z,3.07
2019-03-29T20:18:17.668Z,3.13
2019-03-29T20:21:26.588Z,3.21
2019-03-29T20:23:56.491Z,3.19
2019-03-29T20:26:26.387Z,3.14
2019-03-29T20:28:56.417Z,3.13
2019-03-29T20:31:26.686Z,3.14
2019-03-29T20:33:57.104Z,3.11
2019-03-29T20:36:45.685Z,3.06
2019-03-29T20:42:27.999Z,3.12
2019-03-29T20:56:15.141Z,2.86
2019-03-29T20:58:45.152Z,2.81
2019-03-29T21:04:49.979Z,2.74
2019-03-29T21:10:55.566Z,2.71
2019-03-29T21:13:17.521Z,2.62
2019-03-29T21:18:44.344Z,2.55
2019-03-29T21:21:14.259Z,2.49
2019-03-29T21:23:47.096Z,2.49
2019-03-29T21:26:16.011Z,2.47
2019-03-29T21:28:48.407Z,2.41
2019-03-29T21:31:18.329Z,2.38
2019-03-29T21:33:48.481Z,2.36
2019-03-29T21:36:18.945Z,2.37
2019-03-29T21:38:49.283Z,2.34
2019-03-29T21:41:19.233Z,2.28
2019-03-29T21:44:07.823Z,2.25
2019-03-29T21:47:16.956Z,2.19
2019-03-29T21:56:13.557Z,2.10
2019-03-29T21:58:43.820Z,2.08
2019-03-29T22:01:13.867Z,2.12
2019-03-29T22:03:43.781Z,2.10
2019-03-29T22:06:13.682Z,2.10
2019-03-29T22:08:43.685Z,2.15
2019-03-29T22:11:13.628Z,2.13
2019-03-29T22:13:44.348Z,2.09
2019-03-29T22:16:14.309Z,2.11
2019-03-29T22:18:44.307Z,2.14
2019-03-29T22:21:14.554Z,2.12
2019-03-29T22:29:41.588Z,2.09
2019-03-29T22:32:11.482Z,2.12
2019-03-29T22:37:37.126Z,2.09
2019-03-29T22:40:07.649Z,2.15
2019-03-29T22:42:37.650Z,2.13
2019-03-29T22:45:09.163Z,2.10
2019-03-29T22:47:39.258Z,2.11
2019-03-29T22:50:09.867Z,2.09
2019-03-29T22:52:39.971Z,2.04
2019-03-29T22:55:10.014Z,2.01
2019-03-29T22:57:40.147Z,2.01
2019-03-29T23:00:15.468Z,2.02
2019-03-29T23:02:45.714Z,1.97
2019-03-29T23:05:16.454Z,1.92
2019-03-29T23:07:46.444Z,1.89
2019-03-29T23:10:16.579Z,1.92
2019-03-29T23:12:46.534Z,1.89
2019-03-29T23:15:55.529Z,1.85
2019-03-29T23:24:22.234Z,1.89
2019-03-29T23:26:52.142Z,1.84
2019-03-29T23:29:22.048Z,1.86
2019-03-29T23:31:52.010Z,1.86
2019-03-29T23:37:31.030Z,1.90
2019-03-29T23:40:01.032Z,1.99
2019-03-29T23:42:30.966Z,2.00
2019-03-29T23:48:07.851Z,2.16
2019-03-29T23:50:38.050Z,2.15
